Time;durP1;ratioP1;P1;durP2;ratioP2;P2;SDS_P1;SDS_P2;PMS_P1;PMS_P2;Temp;Humidity;BMP_temperature;BMP_pressure;BME280_temperature;BME280_humidity;BME280_pressure;Samples;Min_cycle;Max_cycle;Signal;HPM_P1;HPM_P2
2023/02/25 00:00:20;;;;;;;13.82;10.27;;;10.70;99.90;;;;;;5015364;28;20022;-95
2023/02/25 00:02:46;;;;;;;18.38;10.07;;;10.70;99.90;;;;;;5015736;28;20038;-95
2023/02/25 00:05:12;;;;;;;17.65;9.43;;;10.70;99.90;;;;;;5015491;28;20021;-94
2023/02/25 00:07:39;;;;;;;17.30;10.23;;;10.70;99.90;;;;;;5015853;28;20458;-95
2023/02/25 00:10:06;;;;;;;16.23;10.10;;;10.60;99.90;;;;;;5015002;28;20030;-94
2023/02/25 00:12:32;;;;;;;15.07;10.43;;;10.80;99.90;;;;;;5015728;28;20083;-95
2023/02/25 00:14:58;;;;;;;15.77;8.85;;;10.70;99.90;;;;;;4997908;28;20025;-95
2023/02/25 00:17:23;;;;;;;15.77;9.23;;;10.70;99.90;;;;;;5014992;28;20030;-95
2023/02/25 00:19:49;;;;;;;14.70;8.90;;;10.70;99.90;;;;;;4998197;28;20071;-96
2023/02/25 00:22:15;;;;;;;13.10;8.80;;;10.80;99.90;;;;;;4996863;28;20124;-95
2023/02/25 00:24:40;;;;;;;14.93;9.23;;;10.70;99.90;;;;;;5013337;28;20029;-95
2023/02/25 00:27:06;;;;;;;15.93;8.98;;;10.70;99.90;;;;;;5014859;28;20038;-95
2023/02/25 00:29:32;;;;;;;11.88;8.25;;;10.70;99.90;;;;;;5014661;28;20382;-95
2023/02/25 00:31:57;;;;;;;13.35;8.38;;;10.70;99.90;;;;;;5014575;28;20026;-94
2023/02/25 00:34:23;;;;;;;13.77;8.75;;;10.70;99.90;;;;;;5013981;28;20060;-94
2023/02/25 00:36:49;;;;;;;13.13;8.75;;;10.70;99.90;;;;;;5014278;28;20052;-95
2023/02/25 00:39:15;;;;;;;14.70;8.77;;;10.60;99.90;;;;;;4996950;28;20053;-95
2023/02/25 00:41:40;;;;;;;14.57;8.13;;;10.50;99.90;;;;;;5013584;28;20057;-96
2023/02/25 00:44:06;;;;;;;16.30;8.75;;;10.50;99.90;;;;;;5013760;28;20030;-95
2023/02/25 00:46:32;;;;;;;13.07;8.48;;;10.30;99.90;;;;;;4998229;28;20026;-94
2023/02/25 00:48:58;;;;;;;14.50;8.20;;;10.30;99.90;;;;;;5026574;28;20026;-95
2023/02/25 00:51:27;;;;;;;14.27;8.23;;;10.20;99.90;;;;;;5026142;28;20018;-94
2023/02/25 00:53:55;;;;;;;14.40;8.55;;;10.20;99.90;;;;;;5016439;28;20041;-95
2023/02/25 00:56:23;;;;;;;11.77;7.18;;;10.30;99.90;;;;;;5014238;28;20022;-94
2023/02/25 00:58:51;;;;;;;14.50;7.57;;;10.40;99.90;;;;;;5014530;28;20117;-95
2023/02/25 01:01:22;;;;;;;12.18;7.57;;;10.40;99.90;;;;;;5014323;28;20036;-96
2023/02/25 01:03:50;;;;;;;13.00;7.55;;;10.50;99.90;;;;;;5014261;28;20056;-95
2023/02/25 01:06:15;;;;;;;12.63;8.15;;;10.70;99.90;;;;;;5016791;28;20021;-96
2023/02/25 01:08:41;;;;;;;13.48;8.57;;;10.50;99.90;;;;;;5000570;28;20383;-95
2023/02/25 01:11:20;;;;;;;14.20;8.50;;;10.60;99.90;;;;;;5001032;28;20037;-94
2023/02/25 01:13:47;;;;;;;12.38;8.05;;;10.50;99.90;;;;;;5000754;28;20030;-96
2023/02/25 01:16:20;;;;;;;13.75;9.27;;;10.50;99.90;;;;;;5000055;28;20112;-95
2023/02/25 01:18:46;;;;;;;16.88;9.40;;;10.60;99.90;;;;;;5017371;28;20033;-95
2023/02/25 01:21:20;;;;;;;16.27;9.60;;;10.50;99.90;;;;;;5017899;28;20057;-96
2023/02/25 01:23:48;;;;;;;16.52;10.10;;;10.10;99.90;;;;;;5017700;28;20030;-96
2023/02/25 01:26:15;;;;;;;15.40;9.73;;;10.00;99.90;;;;;;5000326;28;20050;-95
2023/02/25 01:28:41;;;;;;;13.68;9.30;;;9.90;99.90;;;;;;5018038;28;20072;-95
2023/02/25 01:31:15;;;;;;;16.38;10.27;;;10.10;99.90;;;;;;5017702;28;20034;-95
2023/02/25 01:33:42;;;;;;;19.35;10.48;;;10.30;99.90;;;;;;5018004;28;20101;-94
2023/02/25 01:36:08;;;;;;;17.17;10.73;;;10.40;99.90;;;;;;4999962;28;20041;-95
2023/02/25 01:38:33;;;;;;;14.05;9.88;;;10.10;99.90;;;;;;5016805;28;20034;-95
2023/02/25 01:41:00;;;;;;;19.00;10.40;;;9.90;99.90;;;;;;5000159;28;20025;-95
2023/02/25 01:43:29;;;;;;;13.60;9.70;;;9.90;99.90;;;;;;5017511;28;20038;-95
2023/02/25 01:45:55;;;;;;;14.98;10.32;;;10.00;99.90;;;;;;5017845;28;20046;-94
2023/02/25 01:48:31;;;;;;;14.13;8.90;;;9.90;99.90;;;;;;5017542;28;20510;-94
2023/02/25 01:51:01;;;;;;;14.55;9.27;;;9.80;99.90;;;;;;4999866;28;20034;-95
2023/02/25 01:53:36;;;;;;;12.13;9.10;;;10.20;99.90;;;;;;5017205;28;20029;-93
2023/02/25 01:56:02;;;;;;;15.63;8.95;;;10.30;99.90;;;;;;5004927;28;20030;-95
2023/02/25 01:58:31;;;;;;;17.73;9.23;;;10.40;99.90;;;;;;4997798;28;20023;-94
2023/02/25 02:00:56;;;;;;;14.43;9.13;;;10.50;99.90;;;;;;4979819;28;20043;-94
2023/02/25 02:03:29;;;;;;;12.07;8.77;;;10.60;99.90;;;;;;4997459;28;20033;-95
2023/02/25 02:06:16;;;;;;;17.02;9.70;;;10.40;99.90;;;;;;4997015;28;20034;-95
2023/02/25 02:08:44;;;;;;;13.43;9.00;;;10.00;99.90;;;;;;4998082;28;20029;-96
2023/02/25 02:11:10;;;;;;;10.77;7.85;;;10.20;99.90;;;;;;4997518;28;20121;-95
2023/02/25 02:13:39;;;;;;;10.60;7.47;;;10.00;99.90;;;;;;4997487;28;20097;-95
2023/02/25 02:16:17;;;;;;;11.25;8.02;;;9.90;99.90;;;;;;4997065;28;20026;-96
2023/02/25 02:18:48;;;;;;;10.48;7.35;;;9.80;99.90;;;;;;4997054;28;20502;-95
2023/02/25 02:21:53;;;;;;;12.02;7.20;;;10.00;99.90;;;;;;4996180;28;20034;-95
2023/02/25 02:24:34;;;;;;;6.75;5.25;;;10.00;99.90;;;;;;4997203;28;20026;-96
2023/02/25 02:27:10;;;;;;;3.90;3.45;;;9.80;99.90;;;;;;4997184;28;20037;-95
2023/02/25 02:29:56;;;;;;;3.25;2.80;;;9.80;99.90;;;;;;4997191;28;20097;-95
2023/02/25 02:32:28;;;;;;;2.58;2.33;;;9.90;99.90;;;;;;4997161;28;20027;-96
2023/02/25 02:34:59;;;;;;;3.42;2.83;;;9.80;99.90;;;;;;4996876;28;20442;-95
2023/02/25 02:37:45;;;;;;;2.70;2.22;;;9.60;99.90;;;;;;4996759;28;20069;-94
2023/02/25 02:40:14;;;;;;;2.85;2.38;;;9.50;99.90;;;;;;4996327;28;20038;-96
2023/02/25 02:43:07;;;;;;;2.75;2.53;;;9.50;99.90;;;;;;4996939;28;20038;-96
2023/02/25 02:45:57;;;;;;;2.38;2.17;;;9.70;99.90;;;;;;4997130;28;20026;-94
2023/02/25 02:48:37;;;;;;;5.25;2.35;;;9.60;99.90;;;;;;4995535;28;20042;-95
2023/02/25 02:51:21;;;;;;;2.20;1.80;;;9.70;99.90;;;;;;4996650;28;20030;-95
2023/02/25 02:53:55;;;;;;;2.30;2.10;;;9.70;99.90;;;;;;4995415;28;20022;-95
2023/02/25 02:56:25;;;;;;;2.83;1.92;;;9.80;99.90;;;;;;5022249;28;20037;-95
2023/02/25 02:58:57;;;;;;;4.78;2.20;;;9.80;99.90;;;;;;5016441;28;20488;-95
2023/02/25 03:01:33;;;;;;;2.53;2.00;;;9.50;99.90;;;;;;4998792;28;20041;-96
2023/02/25 03:04:06;;;;;;;3.55;2.10;;;9.50;99.90;;;;;;5016012;28;20022;-94
2023/02/25 03:06:42;;;;;;;1.95;1.77;;;9.60;99.90;;;;;;4998827;28;20030;-95
2023/02/25 03:09:26;;;;;;;2.08;1.80;;;9.50;99.90;;;;;;5015743;28;20138;-94
2023/02/25 03:11:51;;;;;;;2.45;1.75;;;9.50;99.90;;;;;;5015839;28;20041;-95
2023/02/25 03:14:17;;;;;;;2.22;2.03;;;9.10;99.90;;;;;;5015895;28;20076;-95
2023/02/25 03:16:56;;;;;;;4.57;1.88;;;9.20;99.90;;;;;;4998715;28;20057;-94
2023/02/25 03:19:43;;;;;;;1.80;1.70;;;9.40;99.90;;;;;;4998268;28;20026;-95
2023/02/25 03:22:14;;;;;;;2.05;1.90;;;9.20;99.90;;;;;;5015960;28;20034;-95
2023/02/25 03:25:01;;;;;;;3.05;2.00;;;9.00;99.90;;;;;;4998816;28;20032;-94
2023/02/25 03:27:36;;;;;;;1.88;1.70;;;9.30;99.90;;;;;;4997484;28;20594;-95
2023/02/25 03:30:17;;;;;;;2.22;1.70;;;9.30;99.90;;;;;;4997955;28;20109;-95
2023/02/25 03:32:48;;;;;;;1.85;1.65;;;9.40;99.90;;;;;;5015166;28;20068;-94
2023/02/25 03:35:17;;;;;;;2.05;1.70;;;9.40;99.90;;;;;;5015381;28;20030;-95
2023/02/25 03:37:47;;;;;;;2.08;1.85;;;9.50;99.90;;;;;;4998047;28;20076;-94
2023/02/25 03:40:15;;;;;;;2.33;1.52;;;9.50;99.90;;;;;;4997705;28;20037;-94
2023/02/25 03:43:06;;;;;;;1.60;1.50;;;9.20;99.90;;;;;;5015595;28;20445;-94
2023/02/25 03:45:34;;;;;;;1.83;1.67;;;9.10;99.90;;;;;;5015554;28;20034;-95
2023/02/25 03:48:02;;;;;;;2.75;1.70;;;9.10;99.90;;;;;;4997887;28;20034;-94
2023/02/25 03:50:33;;;;;;;1.90;1.77;;;9.20;99.90;;;;;;5015443;28;20029;-93
2023/02/25 03:52:59;;;;;;;1.90;1.60;;;9.40;99.90;;;;;;5014816;28;20045;-94
2023/02/25 03:55:25;;;;;;;2.63;1.65;;;9.40;99.90;;;;;;5014949;28;20026;-95
2023/02/25 03:57:51;;;;;;;2.35;1.70;;;9.40;99.90;;;;;;4997542;28;20033;-93
2023/02/25 04:00:28;;;;;;;3.45;1.90;;;9.40;99.90;;;;;;5015100;28;20401;-95
2023/02/25 04:02:54;;;;;;;3.40;1.70;;;9.30;99.90;;;;;;5014923;28;20037;-94
2023/02/25 04:05:21;;;;;;;1.88;1.67;;;9.20;99.90;;;;;;5014939;28;20022;-95
2023/02/25 04:07:47;;;;;;;1.50;1.40;;;9.20;99.90;;;;;;5014878;28;20030;-94
2023/02/25 04:10:16;;;;;;;1.70;1.50;;;9.00;99.90;;;;;;5015120;28;20022;-94
2023/02/25 04:12:42;;;;;;;1.67;1.58;;;9.00;99.90;;;;;;4997601;28;20029;-96
2023/02/25 04:15:08;;;;;;;1.60;1.50;;;9.10;99.90;;;;;;5014774;28;20029;-94
2023/02/25 04:17:34;;;;;;;1.70;1.60;;;9.30;99.90;;;;;;4996884;28;20037;-95
2023/02/25 04:20:00;;;;;;;1.95;1.52;;;9.10;99.90;;;;;;5014885;28;20034;-95
2023/02/25 04:22:26;;;;;;;1.67;1.50;;;9.00;99.90;;;;;;5015000;28;20049;-94
2023/02/25 04:24:52;;;;;;;1.60;1.50;;;9.00;99.90;;;;;;5014380;28;20029;-94
2023/02/25 04:27:17;;;;;;;2.10;1.35;;;8.80;99.90;;;;;;4997188;28;20068;-95
2023/02/25 04:29:44;;;;;;;2.80;1.60;;;8.90;99.90;;;;;;4996852;28;20061;-89
2023/02/25 04:32:10;;;;;;;2.40;1.63;;;9.10;99.90;;;;;;5014597;28;20034;-94
2023/02/25 04:34:36;;;;;;;2.72;1.65;;;9.20;99.90;;;;;;4997274;28;20022;-95
2023/02/25 04:37:03;;;;;;;2.33;1.40;;;9.00;99.90;;;;;;5014468;28;20089;-95
2023/02/25 04:39:29;;;;;;;1.63;1.52;;;8.90;99.90;;;;;;5014555;28;20063;-94
2023/02/25 04:41:55;;;;;;;2.50;1.30;;;8.90;99.90;;;;;;4996819;28;20069;-95
2023/02/25 04:44:21;;;;;;;1.50;1.40;;;9.00;99.90;;;;;;4997109;28;20119;-94
2023/02/25 04:46:50;;;;;;;1.90;1.60;;;9.00;99.90;;;;;;5014278;28;20029;-95
2023/02/25 04:49:17;;;;;;;1.40;1.30;;;8.90;99.90;;;;;;4997528;28;20022;-94
2023/02/25 04:51:43;;;;;;;1.67;1.58;;;9.10;99.90;;;;;;4997049;28;20058;-95
2023/02/25 04:54:09;;;;;;;1.70;1.50;;;8.90;99.90;;;;;;5014283;28;20371;-95
2023/02/25 04:56:36;;;;;;;2.50;1.60;;;8.80;99.90;;;;;;4997170;28;20034;-95
2023/02/25 04:59:02;;;;;;;3.03;1.90;;;8.80;99.90;;;;;;4996664;28;20483;-95
2023/02/25 05:01:28;;;;;;;2.13;1.50;;;8.70;99.90;;;;;;5014534;28;20114;-95
2023/02/25 05:03:55;;;;;;;2.53;1.60;;;8.70;99.90;;;;;;5014387;28;20034;-95
2023/02/25 05:06:23;;;;;;;2.15;1.80;;;8.70;99.90;;;;;;5014081;28;20026;-93
2023/02/25 05:08:49;;;;;;;1.90;1.70;;;8.70;99.90;;;;;;5014573;28;20085;-94
2023/02/25 05:11:15;;;;;;;1.77;1.58;;;8.60;99.90;;;;;;5014420;28;20068;-95
2023/02/25 05:13:41;;;;;;;1.63;1.52;;;8.70;99.90;;;;;;5014129;28;20034;-94
2023/02/25 05:16:10;;;;;;;1.92;1.52;;;8.80;99.90;;;;;;5014174;28;20086;-94
2023/02/25 05:18:37;;;;;;;1.67;1.58;;;8.90;99.90;;;;;;5014177;28;20034;-94
2023/02/25 05:21:03;;;;;;;1.83;1.73;;;8.80;99.90;;;;;;5013865;28;20141;-94
2023/02/25 05:23:29;;;;;;;1.83;1.70;;;8.70;99.90;;;;;;5014126;28;20072;-94
2023/02/25 05:25:56;;;;;;;2.35;1.85;;;8.60;99.90;;;;;;5014365;28;20034;-94
2023/02/25 05:28:22;;;;;;;2.00;1.65;;;8.60;99.90;;;;;;5013924;28;20486;-95
2023/02/25 05:30:51;;;;;;;1.70;1.60;;;8.70;99.90;;;;;;5014055;28;20087;-94
2023/02/25 05:33:16;;;;;;;1.80;1.70;;;8.80;99.90;;;;;;5014130;28;20033;-95
2023/02/25 05:35:42;;;;;;;3.15;2.08;;;8.70;99.90;;;;;;5014360;28;20026;-94
2023/02/25 05:38:07;;;;;;;1.67;1.50;;;8.60;99.90;;;;;;5014007;28;20487;-95
2023/02/25 05:40:35;;;;;;;3.85;1.50;;;8.60;99.90;;;;;;5014007;28;20033;-94
2023/02/25 05:43:00;;;;;;;1.70;1.60;;;8.80;99.90;;;;;;5013478;28;20042;-95
2023/02/25 05:45:26;;;;;;;1.50;1.40;;;8.70;99.90;;;;;;5014174;28;20109;-94
2023/02/25 05:47:52;;;;;;;1.80;1.70;;;8.40;99.90;;;;;;5013882;28;20109;-94
2023/02/25 05:50:18;;;;;;;1.77;1.60;;;8.50;99.90;;;;;;5013742;28;20022;-94
2023/02/25 05:52:43;;;;;;;2.20;2.00;;;8.50;99.90;;;;;;5016996;28;20053;-94
2023/02/25 05:55:09;;;;;;;2.53;1.83;;;8.50;99.90;;;;;;5017118;28;20045;-94
2023/02/25 05:57:35;;;;;;;2.80;1.88;;;8.50;99.90;;;;;;5016700;28;20034;-95
2023/02/25 06:00:03;;;;;;;2.20;1.98;;;8.50;99.90;;;;;;5017252;28;20033;-94
2023/02/25 06:02:32;;;;;;;1.75;1.65;;;8.60;99.90;;;;;;5017302;28;20046;-93
2023/02/25 06:04:57;;;;;;;3.55;1.83;;;8.60;99.90;;;;;;5000599;28;20018;-94
2023/02/25 06:07:23;;;;;;;2.30;1.92;;;8.50;99.90;;;;;;5017438;28;20033;-94
2023/02/25 06:09:49;;;;;;;3.40;1.80;;;8.60;99.90;;;;;;5017424;28;20026;-95
2023/02/25 06:12:14;;;;;;;2.13;1.92;;;8.80;99.90;;;;;;5000079;28;20064;-95
2023/02/25 06:14:40;;;;;;;3.60;2.00;;;8.70;99.90;;;;;;5017765;28;20025;-94
2023/02/25 06:17:06;;;;;;;2.13;1.92;;;8.30;99.90;;;;;;5017585;28;20520;-94
2023/02/25 06:19:31;;;;;;;2.13;1.92;;;8.60;99.90;;;;;;5017426;28;20022;-95
2023/02/25 06:21:57;;;;;;;2.33;2.13;;;8.70;99.90;;;;;;5017459;28;20551;-94
2023/02/25 06:24:23;;;;;;;3.03;2.38;;;8.70;99.90;;;;;;5017465;28;20042;-94
2023/02/25 06:26:49;;;;;;;2.20;2.00;;;8.80;99.90;;;;;;5017290;28;20080;-95
2023/02/25 06:29:15;;;;;;;3.03;2.42;;;8.80;99.90;;;;;;5017466;28;20026;-94
2023/02/25 06:31:40;;;;;;;2.60;2.17;;;8.80;99.90;;;;;;5017419;28;20109;-95
2023/02/25 06:34:06;;;;;;;3.25;2.20;;;8.70;99.90;;;;;;5017249;28;20045;-94
2023/02/25 06:36:32;;;;;;;4.05;2.47;;;8.40;99.90;;;;;;5016881;28;20061;-94
2023/02/25 06:38:58;;;;;;;3.63;2.33;;;8.30;99.90;;;;;;5017396;28;20018;-95
2023/02/25 06:41:24;;;;;;;2.55;2.35;;;8.10;99.90;;;;;;5017729;28;20478;-94
2023/02/25 06:43:51;;;;;;;2.33;2.13;;;8.40;99.90;;;;;;5017841;28;20033;-94
2023/02/25 06:46:19;;;;;;;3.67;2.30;;;8.50;99.90;;;;;;5000480;28;20093;-94
2023/02/25 06:48:45;;;;;;;2.70;2.50;;;8.40;99.90;;;;;;4999670;28;20037;-94
2023/02/25 06:51:11;;;;;;;2.80;2.40;;;8.60;99.90;;;;;;4999355;28;20402;-94
2023/02/25 06:53:41;;;;;;;4.75;2.72;;;8.50;99.90;;;;;;5016728;28;20396;-94
2023/02/25 06:56:08;;;;;;;3.28;2.67;;;8.60;99.90;;;;;;5016067;28;20026;-95
2023/02/25 06:58:34;;;;;;;2.67;2.47;;;8.50;99.90;;;;;;5016598;28;20082;-94
2023/02/25 07:01:00;;;;;;;3.33;2.78;;;8.40;99.90;;;;;;5016763;28;20099;-94
2023/02/25 07:03:26;;;;;;;2.95;2.67;;;8.30;99.90;;;;;;5000078;28;20034;-95
2023/02/25 07:05:51;;;;;;;3.10;2.80;;;8.30;99.90;;;;;;4998077;28;20033;-95
2023/02/25 07:08:17;;;;;;;4.70;2.97;;;8.30;99.90;;;;;;4998233;28;20028;-94
2023/02/25 07:10:43;;;;;;;4.40;2.75;;;8.10;99.90;;;;;;4998581;28;20026;-96
2023/02/25 07:13:10;;;;;;;3.67;2.70;;;8.20;99.90;;;;;;5015597;28;20112;-95
2023/02/25 07:15:36;;;;;;;2.83;2.60;;;8.40;99.90;;;;;;5015721;28;20030;-94
2023/02/25 07:18:02;;;;;;;3.38;2.92;;;8.40;99.90;;;;;;5015794;28;20044;-95
2023/02/25 07:20:29;;;;;;;2.95;2.65;;;8.20;99.90;;;;;;4998626;28;20137;-95
2023/02/25 07:22:55;;;;;;;4.40;2.88;;;8.30;99.90;;;;;;4998620;28;20039;-95
2023/02/25 07:25:20;;;;;;;2.92;2.70;;;8.40;99.90;;;;;;5015336;28;20032;-95
2023/02/25 07:27:46;;;;;;;3.58;2.45;;;8.10;99.90;;;;;;4992176;28;20045;-94
2023/02/25 07:30:12;;;;;;;3.10;2.50;;;8.00;99.90;;;;;;4978933;28;20499;-95
2023/02/25 07:32:39;;;;;;;3.05;2.58;;;8.40;99.90;;;;;;4978859;28;20030;-94
2023/02/25 07:35:05;;;;;;;2.60;2.20;;;8.40;99.90;;;;;;4978523;28;20027;-96
2023/02/25 07:37:31;;;;;;;2.72;2.40;;;8.10;99.90;;;;;;4978407;28;20137;-96
2023/02/25 07:39:59;;;;;;;2.95;2.45;;;8.60;99.90;;;;;;4978205;28;20495;-95
2023/02/25 07:42:28;;;;;;;2.83;2.50;;;8.60;99.90;;;;;;4995496;28;20057;-95
2023/02/25 07:44:54;;;;;;;3.25;2.95;;;8.80;99.90;;;;;;4998790;28;20113;-92
2023/02/25 07:47:20;;;;;;;3.42;3.05;;;8.70;99.90;;;;;;5009395;28;20473;-92
2023/02/25 07:49:46;;;;;;;7.65;3.50;;;8.90;99.90;;;;;;5004769;28;20116;-92
2023/02/25 07:52:12;;;;;;;3.75;3.30;;;8.90;99.90;;;;;;4987953;28;20046;-87
2023/02/25 07:54:38;;;;;;;6.35;3.95;;;9.10;99.90;;;;;;4994598;28;20065;-92
2023/02/25 07:57:04;;;;;;;5.80;3.13;;;9.30;99.90;;;;;;4994825;28;20124;-95
2023/02/25 07:59:32;;;;;;;4.15;3.38;;;9.20;99.90;;;;;;4991437;28;20026;-92
2023/02/25 08:01:59;;;;;;;3.83;3.25;;;9.20;99.90;;;;;;4996389;28;20041;-90
2023/02/25 08:04:24;;;;;;;5.43;2.80;;;9.20;99.90;;;;;;5010646;28;20076;-91
2023/02/25 08:06:50;;;;;;;4.28;2.90;;;9.20;99.90;;;;;;5006225;28;20054;-90
2023/02/25 08:09:16;;;;;;;3.33;2.85;;;9.00;99.90;;;;;;5007273;28;20584;-91
2023/02/25 08:11:43;;;;;;;2.83;2.58;;;9.00;99.90;;;;;;5013511;28;20029;-90
2023/02/25 08:14:09;;;;;;;5.40;4.03;;;9.10;99.90;;;;;;5013128;28;20033;-90
2023/02/25 08:16:36;;;;;;;6.13;3.38;;;9.40;99.90;;;;;;5013017;28;20133;-91
2023/02/25 08:19:03;;;;;;;5.72;3.50;;;9.40;99.90;;;;;;5013218;28;20046;-90
2023/02/25 08:21:29;;;;;;;3.72;3.30;;;9.50;99.90;;;;;;5013524;28;20033;-91
2023/02/25 08:23:55;;;;;;;3.45;2.78;;;9.70;99.90;;;;;;5013051;28;20398;-91
2023/02/25 08:26:22;;;;;;;3.22;2.90;;;9.90;99.90;;;;;;4995609;28;20014;-91
2023/02/25 08:28:49;;;;;;;4.88;2.80;;;9.90;99.90;;;;;;5012780;28;20030;-91
2023/02/25 08:31:15;;;;;;;3.10;2.53;;;9.90;99.90;;;;;;5011995;28;20034;-91
2023/02/25 08:33:44;;;;;;;3.30;3.00;;;9.90;99.90;;;;;;5011856;28;20072;-91
2023/02/25 08:36:14;;;;;;;3.92;2.90;;;10.20;99.90;;;;;;5012887;28;20145;-91
2023/02/25 08:38:41;;;;;;;3.35;2.83;;;10.50;99.90;;;;;;5012301;28;20024;-91
2023/02/25 08:41:07;;;;;;;4.60;4.20;;;10.70;99.90;;;;;;4999958;28;20372;-90
2023/02/25 08:43:34;;;;;;;4.57;3.60;;;10.90;99.90;;;;;;4976048;28;20045;-91
2023/02/25 08:46:00;;;;;;;3.38;3.08;;;11.10;99.90;;;;;;4993445;28;20022;-90
2023/02/25 08:48:25;;;;;;;5.05;3.92;;;11.20;99.90;;;;;;4993286;28;20026;-90
2023/02/25 08:50:51;;;;;;;5.22;3.85;;;10.80;99.90;;;;;;4993006;28;20411;-91
2023/02/25 08:53:18;;;;;;;4.57;3.92;;;10.60;99.90;;;;;;4976170;28;20526;-91
2023/02/25 08:55:43;;;;;;;4.63;3.28;;;12.30;99.90;;;;;;5003409;28;20026;-91
2023/02/25 08:58:09;;;;;;;4.32;3.53;;;15.30;99.90;;;;;;4995586;28;20479;-89
2023/02/25 09:00:35;;;;;;;6.30;4.55;;;16.50;99.90;;;;;;5012937;28;20033;-91
2023/02/25 09:03:01;;;;;;;5.82;4.47;;;16.70;99.90;;;;;;5012895;28;20514;-91
2023/02/25 09:05:26;;;;;;;5.82;4.95;;;15.90;99.90;;;;;;5012471;28;20064;-91
2023/02/25 09:07:52;;;;;;;7.10;5.63;;;15.00;99.90;;;;;;5012672;28;20490;-91
2023/02/25 09:10:18;;;;;;;6.78;4.80;;;13.60;99.90;;;;;;5013064;28;20129;-91
2023/02/25 09:12:45;;;;;;;6.93;4.85;;;13.40;99.90;;;;;;5012901;28;20026;-91
2023/02/25 09:15:12;;;;;;;5.05;4.28;;;15.30;99.90;;;;;;5012691;28;20398;-91
2023/02/25 09:17:38;;;;;;;6.10;4.65;;;17.30;99.90;;;;;;5012348;28;20552;-91
2023/02/25 09:20:06;;;;;;;7.50;5.53;;;16.20;99.90;;;;;;4994950;28;20100;-91
2023/02/25 09:22:33;;;;;;;6.80;5.40;;;14.00;99.90;;;;;;5012806;28;20498;-90
2023/02/25 09:24:59;;;;;;;6.45;5.53;;;16.00;99.90;;;;;;4995023;28;20026;-92
2023/02/25 09:27:25;;;;;;;5.60;5.00;;;17.80;99.90;;;;;;5015546;28;20034;-91
2023/02/25 09:29:51;;;;;;;7.47;5.38;;;18.70;99.90;;;;;;4998954;28;20444;-91
2023/02/25 09:32:19;;;;;;;7.18;5.13;;;17.90;99.90;;;;;;5016074;28;20092;-92
2023/02/25 09:34:47;;;;;;;8.98;5.82;;;18.80;99.90;;;;;;5016348;28;20022;-91
2023/02/25 09:37:14;;;;;;;7.35;5.75;;;19.30;99.90;;;;;;5015948;28;20046;-92
2023/02/25 09:39:41;;;;;;;9.52;6.40;;;17.40;99.90;;;;;;4998813;28;20025;-91
2023/02/25 09:42:23;;;;;;;6.82;6.07;;;18.30;99.90;;;;;;4998496;28;20121;-92
2023/02/25 09:44:52;;;;;;;7.93;6.00;;;19.70;99.90;;;;;;4998717;28;20030;-92
2023/02/25 09:47:20;;;;;;;8.18;6.22;;;21.10;99.90;;;;;;4998360;28;20452;-92
2023/02/25 09:50:06;;;;;;;8.48;6.43;;;19.30;99.90;;;;;;5015884;28;20076;-92
2023/02/25 09:52:41;;;;;;;8.70;6.53;;;18.50;99.90;;;;;;5016395;28;20104;-92
2023/02/25 09:55:27;;;;;;;12.68;6.90;;;18.80;99.90;;;;;;5015862;28;20497;-92
2023/02/25 09:58:18;;;;;;;8.75;6.78;;;17.90;99.90;;;;;;5015861;28;20034;-92
2023/02/25 10:01:04;;;;;;;8.65;6.70;;;18.00;99.90;;;;;;5016030;28;20101;-92
2023/02/25 10:03:42;;;;;;;10.25;7.10;;;18.20;99.90;;;;;;5015975;28;20042;-92
2023/02/25 10:06:13;;;;;;;13.57;7.78;;;17.80;99.90;;;;;;5015905;28;20088;-92
2023/02/25 10:09:05;;;;;;;9.05;7.72;;;17.90;99.90;;;;;;5016233;28;20500;-92
2023/02/25 10:11:52;;;;;;;8.70;7.03;;;18.30;99.90;;;;;;4939071;29;20065;-92
2023/02/25 10:14:50;;;;;;;10.02;7.75;;;17.60;99.90;;;;;;4955335;29;20054;-92
2023/02/25 10:17:52;;;;;;;8.98;6.95;;;16.40;99.90;;;;;;4954970;29;20036;-92
2023/02/25 10:20:45;;;;;;;9.48;7.53;;;14.50;99.90;;;;;;4955009;29;20039;-91
2023/02/25 10:23:25;;;;;;;11.95;7.60;;;15.20;99.90;;;;;;4955157;29;20130;-92
2023/02/25 10:25:59;;;;;;;9.68;7.22;;;16.30;99.90;;;;;;4954865;29;20023;-91
2023/02/25 10:28:26;;;;;;;9.10;7.10;;;16.50;99.90;;;;;;4955157;29;20445;-92
2023/02/25 10:31:11;;;;;;;8.15;7.35;;;15.80;99.90;;;;;;4954976;29;20063;-92
2023/02/25 10:33:39;;;;;;;9.68;7.35;;;14.50;99.90;;;;;;4954339;29;20058;-92
2023/02/25 10:36:14;;;;;;;10.73;7.65;;;13.30;99.90;;;;;;4954649;29;20282;-91
2023/02/25 10:38:51;;;;;;;9.40;7.57;;;12.90;99.90;;;;;;4955054;28;20043;-91
2023/02/25 10:41:21;;;;;;;12.65;8.40;;;13.10;99.90;;;;;;4954456;28;20043;-92
2023/02/25 10:43:49;;;;;;;10.73;7.43;;;13.70;99.90;;;;;;4954823;29;20039;-92
2023/02/25 10:46:35;;;;;;;12.52;9.13;;;13.70;99.90;;;;;;4938602;29;20024;-92
2023/02/25 10:49:13;;;;;;;9.93;7.68;;;13.50;99.90;;;;;;4997046;28;20049;-91
2023/02/25 10:51:55;;;;;;;9.45;7.53;;;13.60;99.90;;;;;;5015178;28;20033;-91
2023/02/25 10:54:23;;;;;;;9.77;7.57;;;13.60;99.90;;;;;;5014970;28;20030;-91
2023/02/25 10:56:49;;;;;;;10.40;8.35;;;13.80;99.90;;;;;;5014425;28;20080;-91
2023/02/25 10:59:37;;;;;;;13.25;8.68;;;13.60;99.90;;;;;;5014920;28;20022;-92
2023/02/25 11:02:19;;;;;;;12.20;8.25;;;13.30;99.90;;;;;;5014218;28;20130;-91
2023/02/25 11:04:45;;;;;;;11.77;8.68;;;13.30;99.90;;;;;;5014823;28;20481;-91
2023/02/25 11:07:29;;;;;;;10.98;7.68;;;13.40;99.90;;;;;;5014915;28;20045;-92
2023/02/25 11:10:21;;;;;;;9.63;7.68;;;13.20;99.90;;;;;;4997430;28;20474;-91
2023/02/25 11:12:52;;;;;;;10.77;8.48;;;13.00;99.90;;;;;;5014880;28;20578;-91
2023/02/25 11:15:29;;;;;;;11.10;8.15;;;13.20;99.90;;;;;;5014416;28;20030;-91
2023/02/25 11:18:00;;;;;;;10.13;8.00;;;12.90;99.90;;;;;;5014158;28;20562;-91
2023/02/25 11:20:31;;;;;;;13.45;7.60;;;12.70;99.90;;;;;;5014195;28;20441;-91
2023/02/25 11:22:57;;;;;;;8.57;7.18;;;12.70;99.90;;;;;;5014415;28;20048;-90
2023/02/25 11:25:42;;;;;;;9.88;7.30;;;12.70;99.90;;;;;;4996488;28;20087;-91
2023/02/25 11:28:34;;;;;;;10.27;7.40;;;12.80;99.90;;;;;;5014100;28;20033;-91
2023/02/25 11:31:10;;;;;;;9.93;7.60;;;14.50;99.90;;;;;;5013943;28;20022;-91
2023/02/25 11:33:39;;;;;;;10.40;6.65;;;17.60;99.90;;;;;;4996783;28;20034;-92
2023/02/25 11:36:06;;;;;;;9.77;7.80;;;19.10;99.90;;;;;;4997251;28;20041;-92
2023/02/25 11:38:37;;;;;;;13.05;7.55;;;17.50;99.90;;;;;;5014098;28;20039;-92
2023/02/25 11:41:13;;;;;;;8.52;7.05;;;16.70;99.90;;;;;;4996245;28;20396;-92
2023/02/25 11:43:39;;;;;;;9.73;7.53;;;15.60;99.90;;;;;;5013796;28;20038;-92
2023/02/25 11:46:11;;;;;;;9.93;8.30;;;14.80;99.90;;;;;;5013408;28;20165;-91
2023/02/25 11:49:08;;;;;;;9.82;8.07;;;14.10;99.90;;;;;;5013306;28;20030;-91
2023/02/25 11:52:20;;;;;;;9.85;8.25;;;13.70;99.90;;;;;;4996452;28;20079;-92
2023/02/25 11:54:57;;;;;;;11.95;8.32;;;13.40;99.90;;;;;;5008856;28;20026;-92
2023/02/25 11:57:46;;;;;;;10.82;8.10;;;13.10;99.90;;;;;;5013885;28;20021;-92
2023/02/25 12:00:21;;;;;;;11.25;8.95;;;13.00;99.90;;;;;;5013415;28;20453;-92
2023/02/25 12:03:00;;;;;;;10.55;8.35;;;12.70;99.90;;;;;;5013494;28;20088;-91
2023/02/25 12:05:50;;;;;;;12.40;8.73;;;13.20;99.90;;;;;;5013697;28;20029;-92
2023/02/25 12:08:36;;;;;;;11.57;8.50;;;13.30;99.90;;;;;;5013778;28;20022;-92
2023/02/25 12:11:18;;;;;;;12.70;9.07;;;13.80;99.90;;;;;;5013510;28;20015;-91
2023/02/25 12:14:24;;;;;;;14.48;10.95;;;14.30;99.90;;;;;;5013287;28;20025;-89
2023/02/25 12:17:15;;;;;;;16.08;10.82;;;13.80;99.90;;;;;;5013406;28;20038;-91
2023/02/25 12:19:56;;;;;;;15.35;10.80;;;13.40;99.90;;;;;;5013244;28;20058;-91
2023/02/25 12:22:36;;;;;;;13.38;10.98;;;13.40;99.90;;;;;;5013489;28;20124;-91
2023/02/25 12:25:26;;;;;;;17.63;11.00;;;13.40;99.90;;;;;;5013611;28;20072;-91
2023/02/25 12:28:16;;;;;;;16.38;10.93;;;13.60;99.90;;;;;;5013702;28;20486;-91
2023/02/25 12:31:15;;;;;;;14.40;10.48;;;13.20;99.90;;;;;;5013265;28;20022;-91
2023/02/25 12:33:59;;;;;;;15.45;11.15;;;13.20;99.90;;;;;;5013301;28;20034;-92
2023/02/25 12:36:37;;;;;;;14.95;9.75;;;13.80;99.90;;;;;;5012946;28;20046;-91
2023/02/25 12:39:29;;;;;;;15.48;11.00;;;14.20;99.90;;;;;;5013235;28;20052;-91
2023/02/25 12:42:16;;;;;;;15.75;10.68;;;14.10;99.90;;;;;;5013118;28;20113;-91
2023/02/25 12:44:45;;;;;;;14.88;11.13;;;13.50;99.90;;;;;;5012607;28;20359;-92
2023/02/25 12:47:26;;;;;;;16.00;11.52;;;13.20;99.90;;;;;;5013513;28;20022;-91
2023/02/25 12:50:12;;;;;;;14.02;10.98;;;12.70;99.90;;;;;;5013344;28;20041;-91
2023/02/25 12:52:58;;;;;;;12.95;10.40;;;12.50;99.90;;;;;;4995043;28;20128;-91
2023/02/25 12:55:30;;;;;;;13.00;11.30;;;12.40;99.90;;;;;;5011873;28;20021;-92
2023/02/25 12:58:34;;;;;;;14.43;10.68;;;12.80;99.90;;;;;;5012534;28;20022;-91
2023/02/25 13:01:09;;;;;;;15.35;11.00;;;12.70;99.90;;;;;;5014315;28;20109;-91
2023/02/25 13:03:56;;;;;;;14.60;10.98;;;12.70;99.90;;;;;;4999660;28;20428;-92
2023/02/25 13:06:34;;;;;;;17.08;10.75;;;12.70;99.90;;;;;;5017037;28;20041;-91
2023/02/25 13:09:11;;;;;;;16.25;11.05;;;12.70;99.90;;;;;;5016943;28;20377;-92